»·PEaware :: WAT563 KSLC-KLAS

WAT563 :: KSLC-KLAS

FLIGHT INFORMATION

Flight Status: Arrived
Operator:
Walker Air Transport
More flights by this operator :: More flights under this callsign
Pilot: Trevel L P. (20826)
Aircraft: BOEING 737-800
(B738)
More flights by this aircraft type
Origin: KSLC Salt Lake City Intl
United States
Destination: KLAS McCarran Intl
United States
More flights between these airports :: More routes between these airports
Route: ZIONZ1 EHK KSINO SITEE4
File this flight plan on PilotEdge
Remarks: RMK / SIMBRIEF
Altitude:
(Current/Filed)
30,000ft
Speed:
(Current/Filed)
456kts
Departed: 22-Feb-21 02:36 PM
Arrived: 22-Feb-21 03:30 PM
Distance/Time
Traveled:
319nm/0:54
Distance/Time
To Go:
Arrived

Flight Plot

Page will automatically refresh every two minutes.

Flight plan parsing failed; only flown route is shown


Map Options




Map Legend


Flown Route
Filed Route
Departure Airport
Arrival Airport
Navaid (VOR, NDB)
Fix

Horizontal Profiles

Position Reports

Time Latitude Longitude Heading Altitude Ground
Speed
22-Feb-21 13:55 40.786831 -111.979423 154 4235ft 0kts
22-Feb-21 13:56 40.786831 -111.979423 154 4235ft 0kts
22-Feb-21 13:57 40.786831 -111.979423 154 4235ft 0kts
22-Feb-21 13:58 40.786831 -111.979423 154 4235ft 0kts
22-Feb-21 13:59 40.786831 -111.979423 154 4235ft 0kts
22-Feb-21 14:00 40.786831 -111.979423 154 4235ft 0kts
22-Feb-21 14:01 40.786831 -111.979423 154 4235ft 0kts
22-Feb-21 14:02 40.786831 -111.979423 154 4235ft 0kts
22-Feb-21 14:03 40.786831 -111.979423 154 4235ft 0kts
22-Feb-21 14:04 40.786831 -111.979423 154 4235ft 0kts
22-Feb-21 14:05 40.786831 -111.979423 154 4235ft 0kts
22-Feb-21 14:06 40.786831 -111.979423 154 4235ft 0kts
22-Feb-21 14:06 40.786831 -111.979423 154 4235ft 0kts
22-Feb-21 14:08 40.786831 -111.979423 154 4235ft 0kts
22-Feb-21 14:09 40.786831 -111.979423 154 4235ft 0kts
22-Feb-21 14:09 40.786831 -111.979423 154 4235ft 0kts
22-Feb-21 14:11 40.786831 -111.979423 154 4235ft 0kts
22-Feb-21 14:11 40.786831 -111.979423 154 4235ft 0kts
22-Feb-21 14:12 40.786831 -111.979423 154 4235ft 0kts
22-Feb-21 14:13 40.786831 -111.979423 154 4235ft 0kts
22-Feb-21 14:15 40.786831 -111.979423 154 4235ft 0kts
22-Feb-21 14:16 40.786831 -111.979423 154 4235ft 0kts
22-Feb-21 14:16 40.786831 -111.979423 154 4235ft 0kts
22-Feb-21 14:17 40.786831 -111.979423 154 4235ft 0kts
22-Feb-21 14:18 40.786831 -111.979423 154 4235ft 0kts
22-Feb-21 14:19 40.786831 -111.979423 154 4235ft 0kts
22-Feb-21 14:20 40.786831 -111.979423 154 4235ft 0kts
22-Feb-21 14:21 40.786831 -111.979423 154 4235ft 0kts
22-Feb-21 14:22 40.786831 -111.979423 154 4235ft 0kts
22-Feb-21 14:23 40.786831 -111.979423 154 4235ft 0kts
22-Feb-21 14:24 40.787080 -111.979597 147 4235ft 2kts
22-Feb-21 14:25 40.787414 -111.980263 48 4235ft 0kts
22-Feb-21 14:26 40.787415 -111.980262 48 4235ft 0kts
22-Feb-21 14:27 40.787416 -111.980260 48 4235ft 0kts
22-Feb-21 14:28 40.789937 -111.978966 63 4235ft 11kts
22-Feb-21 14:29 40.791927 -111.977229 354 4235ft 13kts
22-Feb-21 14:30 40.794765 -111.977572 354 4235ft 15kts
22-Feb-21 14:31 40.798904 -111.978076 355 4235ft 13kts
22-Feb-21 14:32 40.803051 -111.978564 355 4235ft 15kts
22-Feb-21 14:33 40.806751 -111.978983 0 4235ft 11kts
22-Feb-21 14:34 40.807381 -111.977675 98 4235ft 11kts
22-Feb-21 14:35 40.791243 -111.975070 174 4235ft 155kts
22-Feb-21 14:36 40.741953 -111.971874 173 6866ft 182kts
22-Feb-21 14:37 40.680855 -111.957882 170 8725ft 254kts
22-Feb-21 14:38 40.608075 -111.952969 182 11435ft 270kts
22-Feb-21 14:39 40.523543 -111.952438 181 13130ft 341kts
22-Feb-21 14:40 40.418647 -111.949748 178 14711ft 404kts
22-Feb-21 14:41 40.303592 -111.941130 179 17214ft 424kts
22-Feb-21 14:42 40.184430 -111.951854 189 19591ft 435kts
22-Feb-21 14:43 40.062320 -111.970492 189 21782ft 448kts
22-Feb-21 14:44 39.936636 -111.988752 189 23706ft 458kts
22-Feb-21 14:45 39.808462 -112.007430 189 25352ft 470kts
22-Feb-21 14:46 39.676881 -112.026650 189 26835ft 480kts
22-Feb-21 14:47 39.542662 -112.046064 189 28319ft 486kts
22-Feb-21 14:48 39.408972 -112.065278 189 30132ft 481kts
22-Feb-21 14:49 39.275828 -112.084140 189 30486ft 479kts
22-Feb-21 14:50 39.144239 -112.107406 198 30484ft 474kts
22-Feb-21 14:51 39.026751 -112.181099 213 30482ft 468kts
22-Feb-21 14:52 38.913682 -112.264147 212 30478ft 470kts
22-Feb-21 14:53 38.799756 -112.346882 212 30470ft 470kts
22-Feb-21 14:54 38.686108 -112.429226 211 30461ft 470kts
22-Feb-21 14:55 38.571944 -112.511357 211 30451ft 470kts
22-Feb-21 14:56 38.457778 -112.593176 211 30444ft 472kts
22-Feb-21 14:57 38.343214 -112.674967 211 30441ft 471kts
22-Feb-21 14:58 38.229018 -112.756210 211 30436ft 470kts
22-Feb-21 14:59 38.114638 -112.837321 210 30436ft 471kts
22-Feb-21 15:00 38.000214 -112.918390 210 30433ft 470kts
22-Feb-21 15:01 37.885647 -112.998909 209 30426ft 471kts
22-Feb-21 15:02 37.771810 -113.079639 212 30420ft 470kts
22-Feb-21 15:03 37.663626 -113.172607 214 30419ft 469kts
22-Feb-21 15:04 37.555430 -113.264930 214 30414ft 469kts
22-Feb-21 15:05 37.447319 -113.356963 214 30404ft 468kts
22-Feb-21 15:06 37.341309 -113.444086 212 30393ft 469kts
22-Feb-21 15:07 37.233024 -113.535113 214 30385ft 469kts
22-Feb-21 15:08 37.124889 -113.626150 213 29712ft 460kts
22-Feb-21 15:09 37.019641 -113.714689 214 27455ft 449kts
22-Feb-21 15:10 36.917160 -113.800890 214 25246ft 439kts
22-Feb-21 15:11 36.817059 -113.884797 214 23059ft 428kts
22-Feb-21 15:12 36.719365 -113.966199 214 20939ft 410kts
22-Feb-21 15:13 36.627896 -114.042026 214 18495ft 389kts
22-Feb-21 15:14 36.550514 -114.132228 237 16465ft 379kts
22-Feb-21 15:15 36.495649 -114.242110 239 14454ft 371kts
22-Feb-21 15:16 36.440415 -114.349358 238 12492ft 363kts
22-Feb-21 15:17 36.389248 -114.448372 238 12000ft 312kts
22-Feb-21 15:18 36.343650 -114.537115 238 11077ft 303kts
22-Feb-21 15:19 36.297410 -114.622493 224 10060ft 293kts
22-Feb-21 15:20 36.225077 -114.662496 197 9356ft 283kts
22-Feb-21 15:21 36.151004 -114.693923 198 8684ft 279kts
22-Feb-21 15:22 36.082017 -114.728071 225 8042ft 255kts
22-Feb-21 15:23 36.072951 -114.807924 272 6993ft 233kts
22-Feb-21 15:24 36.073590 -114.886360 270 5699ft 219kts
22-Feb-21 15:25 36.073660 -114.953952 270 4743ft 175kts
22-Feb-21 15:26 36.073521 -115.011103 268 3737ft 160kts
22-Feb-21 15:27 36.073332 -115.063473 273 3055ft 154kts
22-Feb-21 15:28 36.073556 -115.118651 273 2393ft 161kts
22-Feb-21 15:29 36.073614 -115.159500 269 2189ft 35kts
22-Feb-21 15:30 36.076067 -115.161205 1 2189ft 13kts
22-Feb-21 15:31 36.077964 -115.158201 90 2189ft 13kts
22-Feb-21 15:32 36.077939 -115.154014 89 2189ft 11kts
22-Feb-21 15:33 36.080007 -115.151932 1 2189ft 13kts
22-Feb-21 15:34 36.082392 -115.151467 49 2189ft 1kts
22-Feb-21 15:35 36.082417 -115.151432 49 2189ft 0kts
22-Feb-21 15:36 36.082417 -115.151432 49 2189ft 0kts
22-Feb-21 15:37 36.082417 -115.151432 49 2189ft 0kts
22-Feb-21 15:38 36.082417 -115.151432 49 2189ft 0kts
22-Feb-21 15:39 36.082417 -115.151432 49 2189ft 0kts
22-Feb-21 15:40 36.082417 -115.151432 49 2189ft 0kts
22-Feb-21 15:41 36.082417 -115.151432 49 2189ft 0kts
22-Feb-21 15:42 36.082417 -115.151432 49 2189ft 0kts
22-Feb-21 15:43 36.082417 -115.151432 49 2189ft 0kts

Navigation Log

Ident Type
Flight plan parsing failed, navigation log unavailable